createdAt,value
2019-05-22T00:01:10.039Z,13.70
2019-05-22T00:03:44.441Z,13.65
2019-05-22T00:06:13.902Z,13.58
2019-05-22T00:08:42.862Z,13.47
2019-05-22T00:11:11.447Z,13.45
2019-05-22T00:13:40.535Z,13.37
2019-05-22T00:16:08.330Z,13.32
2019-05-22T00:18:36.959Z,13.27
2019-05-22T00:21:03.710Z,13.27
2019-05-22T00:23:30.816Z,13.22
2019-05-22T00:25:57.232Z,13.17
2019-05-22T00:28:24.788Z,13.09
2019-05-22T00:30:51.960Z,13.10
2019-05-22T00:33:18.634Z,13.06
2019-05-22T00:35:46.651Z,13.07
2019-05-22T00:38:14.453Z,13.11
2019-05-22T00:40:50.328Z,13.14
2019-05-22T00:43:18.035Z,13.12
2019-05-22T00:45:48.198Z,13.11
2019-05-22T00:48:15.549Z,13.14
2019-05-22T00:50:48.913Z,13.18
2019-05-22T00:53:47.361Z,13.18
2019-05-22T00:56:28.899Z,13.20
2019-05-22T00:59:01.275Z,13.17
2019-05-22T01:01:36.973Z,13.20
2019-05-22T01:04:05.383Z,13.25
2019-05-22T03:05:31.975Z,12.78
2019-05-22T03:07:58.835Z,12.78
2019-05-22T03:10:25.966Z,12.73
2019-05-22T03:12:52.829Z,12.72
2019-05-22T03:15:21.209Z,12.71
2019-05-22T03:17:50.584Z,12.70
2019-05-22T03:20:20.337Z,12.70
2019-05-22T03:23:13.693Z,12.72
2019-05-22T03:25:41.417Z,12.68
2019-05-22T03:28:10.149Z,12.67
2019-05-22T03:30:39.365Z,12.65
2019-05-22T03:33:07.323Z,12.68
2019-05-22T03:35:42.851Z,12.66
2019-05-22T03:38:09.996Z,12.63
2019-05-22T03:40:37.085Z,12.65
2019-05-22T03:43:14.546Z,12.66
2019-05-22T03:45:41.637Z,12.67
2019-05-22T03:48:09.409Z,12.62
2019-05-22T03:50:36.839Z,12.62
2019-05-22T03:53:13.285Z,12.62
2019-05-22T03:55:40.275Z,12.59
2019-05-22T03:58:08.256Z,12.65
2019-05-22T04:00:35.543Z,12.61
2019-05-22T04:03:04.288Z,12.62
2019-05-22T04:05:31.249Z,12.63
2019-05-22T04:08:04.499Z,12.61
2019-05-22T04:10:33.622Z,12.63
2019-05-22T04:13:00.665Z,12.63
2019-05-22T04:15:27.982Z,12.63
2019-05-22T04:18:04.601Z,12.60
2019-05-22T04:20:31.947Z,12.60
2019-05-22T04:23:01.527Z,12.59
2019-05-22T04:25:29.010Z,12.58
2019-05-22T04:27:56.246Z,12.60
2019-05-22T04:30:22.897Z,12.60
2019-05-22T04:33:01.741Z,12.63
2019-05-22T04:35:28.381Z,12.65
2019-05-22T04:37:56.269Z,12.66
2019-05-22T04:40:53.569Z,12.72
2019-05-22T04:43:23.362Z,12.68
2019-05-22T04:45:50.592Z,12.69
2019-05-22T04:48:21.111Z,12.70
2019-05-22T04:50:49.443Z,12.66
2019-05-22T04:53:17.174Z,12.69
2019-05-22T04:55:44.484Z,12.69
2019-05-22T04:58:11.336Z,12.75
2019-05-22T05:00:37.959Z,12.78
2019-05-22T05:03:04.653Z,12.75
2019-05-22T05:05:34.026Z,12.72
2019-05-22T05:08:01.327Z,12.68
2019-05-22T05:10:30.793Z,12.70
2019-05-22T05:12:58.012Z,12.65
2019-05-22T05:15:24.703Z,12.67
2019-05-22T05:17:51.217Z,12.69
2019-05-22T05:20:22.397Z,12.71
2019-05-22T05:22:47.778Z,12.71
2019-05-22T05:25:16.466Z,12.76
2019-05-22T05:27:43.329Z,12.79
2019-05-22T05:30:10.339Z,12.83
2019-05-22T05:32:37.368Z,12.88
2019-05-22T05:35:06.568Z,12.88
2019-05-22T05:37:34.015Z,12.99
2019-05-22T05:40:24.184Z,13.07
2019-05-22T05:42:50.887Z,13.02
2019-05-22T05:45:17.340Z,13.07
2019-05-22T05:47:44.544Z,13.03
2019-05-22T05:52:45.363Z,13.04
2019-05-22T05:55:12.358Z,13.04
2019-05-22T05:58:22.351Z,13.13
2019-05-22T06:00:53.348Z,13.21
2019-05-22T06:03:33.976Z,13.29
2019-05-22T06:06:19.142Z,13.29
2019-05-22T06:08:45.798Z,13.33
2019-05-22T06:11:40.243Z,13.30
2019-05-22T06:14:09.339Z,13.26
2019-05-22T06:17:13.337Z,13.11
2019-05-22T06:19:42.955Z,13.02
2019-05-22T06:22:09.701Z,12.99
2019-05-22T06:24:56.606Z,13.01
2019-05-22T06:27:27.684Z,13.07
2019-05-22T06:30:02.016Z,13.06
2019-05-22T06:33:33.396Z,13.08
2019-05-22T06:36:01.978Z,13.09
2019-05-22T06:38:48.709Z,13.13
2019-05-22T06:41:18.829Z,13.05
2019-05-22T06:44:26.945Z,13.07
2019-05-22T06:46:53.877Z,13.07
2019-05-22T06:49:42.519Z,13.10
2019-05-22T06:52:09.816Z,13.04
2019-05-22T06:54:37.782Z,12.94
2019-05-22T06:57:07.862Z,12.90
2019-05-22T06:59:35.042Z,12.98
2019-05-22T07:02:10.879Z,12.99
2019-05-22T07:04:45.612Z,12.95
2019-05-22T07:07:13.323Z,12.98
2019-05-22T07:09:41.237Z,12.83
2019-05-22T07:12:24.198Z,12.91
2019-05-22T07:15:42.283Z,12.99
2019-05-22T07:18:14.025Z,13.16
2019-05-22T07:20:42.144Z,13.38
2019-05-22T07:23:16.077Z,13.54
2019-05-22T07:25:43.850Z,13.48
2019-05-22T07:28:10.750Z,13.31
2019-05-22T07:30:38.192Z,13.28
2019-05-22T07:33:05.097Z,13.40
2019-05-22T07:35:46.186Z,13.41
2019-05-22T07:38:00.609Z,13.56
2019-05-22T07:40:30.772Z,13.54
2019-05-22T07:42:57.677Z,13.61
2019-05-22T07:45:28.718Z,13.72
2019-05-22T07:47:56.549Z,13.63
2019-05-22T07:50:23.670Z,13.60
2019-05-22T07:52:50.399Z,13.42
2019-05-22T07:55:18.993Z,13.43
2019-05-22T07:57:54.758Z,13.37
2019-05-22T08:00:21.423Z,13.30
2019-05-22T08:02:49.581Z,13.43
2019-05-22T08:05:16.834Z,13.36
2019-05-22T08:07:45.214Z,13.43
2019-05-22T08:10:13.405Z,13.38
2019-05-22T08:12:40.008Z,13.20
2019-05-22T08:15:08.007Z,13.29
2019-05-22T08:17:34.572Z,13.32
2019-05-22T08:20:01.273Z,13.35
2019-05-22T08:22:28.697Z,13.27
2019-05-22T08:24:55.999Z,13.28
2019-05-22T08:27:22.727Z,13.18
2019-05-22T08:29:49.877Z,13.11
2019-05-22T08:32:17.476Z,13.07
2019-05-22T08:34:44.142Z,13.09
2019-05-22T08:37:15.234Z,13.08
2019-05-22T08:39:43.388Z,13.02
2019-05-22T08:42:12.443Z,12.83
2019-05-22T08:44:39.597Z,12.78
2019-05-22T08:47:07.451Z,12.74
2019-05-22T08:49:34.575Z,12.78
2019-05-22T08:52:01.490Z,12.91
2019-05-22T08:54:29.915Z,12.94
2019-05-22T08:56:56.704Z,13.00
2019-05-22T08:59:23.730Z,12.97
2019-05-22T09:01:50.869Z,13.13
2019-05-22T09:04:17.854Z,13.09
2019-05-22T09:06:44.523Z,13.02
2019-05-22T09:09:11.705Z,13.01
2019-05-22T09:11:38.581Z,12.98
2019-05-22T09:14:05.754Z,13.09
2019-05-22T09:16:38.109Z,13.16
2019-05-22T09:19:05.782Z,13.37
2019-05-22T09:21:33.695Z,13.59
2019-05-22T09:24:00.798Z,13.46
2019-05-22T09:26:28.480Z,13.39
2019-05-22T09:28:55.109Z,13.43
2019-05-22T09:31:21.735Z,13.24
2019-05-22T09:33:49.091Z,13.34
2019-05-22T09:36:16.469Z,13.29
2019-05-22T09:38:45.303Z,13.37
2019-05-22T09:41:12.000Z,13.24
2019-05-22T09:43:38.908Z,13.33
2019-05-22T09:46:05.948Z,13.32
2019-05-22T09:48:33.547Z,13.37
2019-05-22T09:51:02.306Z,13.50
2019-05-22T09:53:30.533Z,13.45
2019-05-22T09:55:58.268Z,13.51
2019-05-22T09:58:25.005Z,13.55
2019-05-22T10:00:52.162Z,13.52
2019-05-22T10:03:19.481Z,13.50
2019-05-22T10:05:47.739Z,13.59
2019-05-22T10:08:14.378Z,13.68
2019-05-22T10:10:43.392Z,13.60
2019-05-22T10:13:10.171Z,13.49
2019-05-22T10:15:36.876Z,13.53
2019-05-22T10:18:03.558Z,13.54
2019-05-22T10:20:30.570Z,13.60
2019-05-22T10:23:12.496Z,13.66
2019-05-22T10:25:27.016Z,13.85
2019-05-22T10:28:03.845Z,14.04
2019-05-22T10:30:31.830Z,14.17
2019-05-22T10:32:58.662Z,14.37
2019-05-22T10:35:28.757Z,14.39
2019-05-22T10:37:56.055Z,14.24
2019-05-22T10:40:23.073Z,14.09
2019-05-22T10:42:49.973Z,13.97
2019-05-22T10:45:16.764Z,13.99
2019-05-22T10:47:43.368Z,13.96
2019-05-22T10:50:10.028Z,13.77
2019-05-22T10:52:37.015Z,13.87
2019-05-22T10:55:04.446Z,14.20
2019-05-22T10:57:33.050Z,14.28
2019-05-22T11:00:01.006Z,14.24
2019-05-22T11:02:28.967Z,14.07
2019-05-22T11:04:55.914Z,14.11
2019-05-22T11:07:22.974Z,14.17
2019-05-22T11:09:49.606Z,14.11
2019-05-22T11:12:16.557Z,14.17
2019-05-22T11:14:47.066Z,14.08
2019-05-22T11:17:14.794Z,13.87
2019-05-22T11:19:41.411Z,13.95
2019-05-22T11:22:11.177Z,14.20
2019-05-22T11:24:37.895Z,14.28
2019-05-22T11:27:04.773Z,13.95
2019-05-22T11:29:32.132Z,13.90
2019-05-22T11:31:59.031Z,13.89
2019-05-22T11:34:25.988Z,13.78
2019-05-22T11:36:53.921Z,13.73
2019-05-22T11:39:38.156Z,13.59
2019-05-22T11:41:52.114Z,13.48
2019-05-22T11:44:18.867Z,13.40
2019-05-22T11:46:45.519Z,13.34
2019-05-22T11:49:12.961Z,13.61
2019-05-22T11:51:39.811Z,13.58
2019-05-22T11:54:09.619Z,13.69
2019-05-22T11:56:35.385Z,13.71
2019-05-22T11:59:02.641Z,13.70
2019-05-22T12:01:29.498Z,13.70
2019-05-22T12:03:58.127Z,13.62
2019-05-22T12:06:25.291Z,13.56
2019-05-22T12:08:52.321Z,13.51
2019-05-22T12:11:19.673Z,13.45
2019-05-22T12:13:46.479Z,13.71
2019-05-22T12:16:13.106Z,14.06
2019-05-22T12:18:40.298Z,14.23
2019-05-22T12:21:07.366Z,14.07
2019-05-22T12:23:34.087Z,14.21
2019-05-22T12:26:01.806Z,14.38
2019-05-22T12:28:30.195Z,14.25
2019-05-22T12:30:57.467Z,14.16
2019-05-22T12:33:25.060Z,13.91
2019-05-22T12:35:52.261Z,13.86
2019-05-22T12:38:21.315Z,13.67
2019-05-22T12:40:48.122Z,13.65
2019-05-22T12:43:15.347Z,13.61
2019-05-22T12:45:42.161Z,13.62
2019-05-22T12:48:09.500Z,13.55
2019-05-22T12:50:40.559Z,13.62
2019-05-22T12:53:09.447Z,14.01
2019-05-22T12:55:37.086Z,14.34
2019-05-22T12:58:04.962Z,14.77
2019-05-22T13:00:35.827Z,15.04
2019-05-22T13:03:02.771Z,14.97
2019-05-22T13:05:29.520Z,14.93
2019-05-22T13:07:57.606Z,14.63
2019-05-22T13:10:25.253Z,14.47
2019-05-22T13:12:52.263Z,14.21
2019-05-22T13:15:21.060Z,14.08
2019-05-22T13:17:48.429Z,14.27
2019-05-22T13:20:18.874Z,14.66
2019-05-22T13:22:47.412Z,15.01
2019-05-22T13:25:16.209Z,15.18
2019-05-22T13:27:43.969Z,15.10
2019-05-22T13:30:12.433Z,14.96
2019-05-22T13:32:39.198Z,14.83
2019-05-22T13:35:06.904Z,14.52
2019-05-22T13:37:34.269Z,14.71
2019-05-22T13:40:01.864Z,14.71
2019-05-22T13:42:28.670Z,14.50
2019-05-22T13:44:55.828Z,14.43
2019-05-22T13:47:23.081Z,14.91
2019-05-22T13:49:50.887Z,15.12
2019-05-22T13:52:18.596Z,14.89
2019-05-22T13:54:46.052Z,14.72
2019-05-22T13:57:13.028Z,14.58
2019-05-22T13:59:39.749Z,14.58
2019-05-22T14:02:07.194Z,14.31
2019-05-22T14:04:34.830Z,14.20
2019-05-22T14:07:02.497Z,14.03
2019-05-22T14:09:29.363Z,13.88
2019-05-22T14:11:55.949Z,13.66
2019-05-22T14:14:23.082Z,13.69
2019-05-22T14:16:49.714Z,13.48
2019-05-22T14:19:16.467Z,13.28
2019-05-22T14:21:50.907Z,13.07
2019-05-22T14:24:11.861Z,12.84
2019-05-22T14:28:14.903Z,12.66
2019-05-22T14:30:42.557Z,12.65
2019-05-22T14:33:09.212Z,12.69
2019-05-22T14:35:48.502Z,12.75
2019-05-22T14:38:08.866Z,12.88
2019-05-22T14:40:36.546Z,13.05
2019-05-22T14:43:03.292Z,13.18
2019-05-22T14:45:29.824Z,13.13
2019-05-22T14:47:57.092Z,13.09
2019-05-22T14:50:24.010Z,13.06
2019-05-22T14:52:51.026Z,13.17
2019-05-22T14:55:17.792Z,13.15
2019-05-22T14:57:44.782Z,13.18
2019-05-22T15:00:12.042Z,13.11
2019-05-22T15:02:39.220Z,13.12
2019-05-22T15:05:08.366Z,12.97
2019-05-22T15:07:36.201Z,12.84
2019-05-22T15:10:03.934Z,12.80
2019-05-22T15:12:30.750Z,12.74
2019-05-22T15:14:57.365Z,12.79
2019-05-22T15:17:32.474Z,12.77
2019-05-22T15:19:52.507Z,12.82
2019-05-22T15:22:19.399Z,12.68
2019-05-22T15:24:46.013Z,12.78
2019-05-22T15:27:13.664Z,12.78
2019-05-22T15:29:40.206Z,13.00
2019-05-22T15:32:08.668Z,13.15
2019-05-22T15:34:37.095Z,13.34
2019-05-22T15:37:04.135Z,13.43
2019-05-22T15:39:32.243Z,13.45
2019-05-22T15:41:59.980Z,13.41
2019-05-22T15:44:27.273Z,13.45
2019-05-22T15:46:54.454Z,13.42
2019-05-22T15:49:22.039Z,13.59
2019-05-22T15:51:49.590Z,13.82
2019-05-22T15:54:17.824Z,13.98
2019-05-22T15:56:50.090Z,14.03
2019-05-22T15:59:16.869Z,14.05
2019-05-22T16:01:47.068Z,14.02
2019-05-22T16:04:14.267Z,14.01
2019-05-22T16:06:41.265Z,13.96
2019-05-22T16:09:12.505Z,13.97
2019-05-22T16:11:40.926Z,13.91
2019-05-22T16:14:09.900Z,13.90
2019-05-22T16:16:37.153Z,13.94
2019-05-22T16:19:04.800Z,13.94
2019-05-22T16:21:32.374Z,13.94
2019-05-22T16:24:00.902Z,13.83
2019-05-22T16:26:27.926Z,13.74
2019-05-22T16:28:54.835Z,13.63
2019-05-22T16:31:24.989Z,13.62
2019-05-22T16:33:55.750Z,13.69
2019-05-22T16:36:23.582Z,13.67
2019-05-22T16:38:50.387Z,13.72
2019-05-22T16:41:17.993Z,13.62
2019-05-22T16:43:49.329Z,13.71
2019-05-22T16:46:15.816Z,13.67
2019-05-22T16:48:43.180Z,13.73
2019-05-22T16:51:10.112Z,13.77
2019-05-22T16:53:37.138Z,13.71
2019-05-22T16:56:04.804Z,13.73
2019-05-22T16:58:33.450Z,13.78
2019-05-22T17:01:01.024Z,13.90
2019-05-22T17:03:27.681Z,13.97
2019-05-22T17:05:54.859Z,13.98
2019-05-22T17:08:22.122Z,14.10
2019-05-22T17:10:52.378Z,14.08
2019-05-22T17:13:19.195Z,14.00
2019-05-22T17:15:46.090Z,14.01
2019-05-22T17:18:14.760Z,14.05
2019-05-22T17:20:42.474Z,14.08
2019-05-22T17:23:09.155Z,14.19
2019-05-22T17:25:36.633Z,14.05
2019-05-22T17:28:03.634Z,13.89
2019-05-22T17:30:31.800Z,13.93
2019-05-22T17:32:59.059Z,13.86
2019-05-22T17:35:26.195Z,13.90
2019-05-22T17:37:53.075Z,13.97
2019-05-22T17:40:21.004Z,14.13
2019-05-22T17:42:51.741Z,14.03
2019-05-22T17:45:20.388Z,13.91
2019-05-22T17:47:46.904Z,13.85
2019-05-22T17:50:26.235Z,13.77
2019-05-22T17:52:46.604Z,13.70
2019-05-22T17:55:14.274Z,13.85
2019-05-22T17:57:41.014Z,13.89
2019-05-22T18:00:15.302Z,13.85
2019-05-22T18:02:42.145Z,13.78
2019-05-22T18:05:10.388Z,13.81
2019-05-22T18:07:38.036Z,13.70
2019-05-22T18:10:05.836Z,13.66
2019-05-22T18:12:32.674Z,13.61
2019-05-22T18:15:11.572Z,13.55
2019-05-22T18:17:38.887Z,13.44
2019-05-22T18:20:53.712Z,13.39
2019-05-22T18:23:22.604Z,13.26
2019-05-22T18:25:49.608Z,13.21
2019-05-22T18:28:17.129Z,13.12
2019-05-22T18:30:46.525Z,13.03
2019-05-22T18:33:13.257Z,12.96
2019-05-22T18:35:40.255Z,12.90
2019-05-22T18:38:07.262Z,12.84
2019-05-22T18:40:34.238Z,12.79
2019-05-22T18:43:00.983Z,12.78
2019-05-22T18:45:28.034Z,12.73
2019-05-22T18:47:54.930Z,12.65
2019-05-22T18:50:23.377Z,12.55
2019-05-22T18:53:28.118Z,12.50
2019-05-22T18:55:57.869Z,12.42
2019-05-22T18:58:29.678Z,12.30
2019-05-22T19:00:57.039Z,12.22
2019-05-22T19:03:25.564Z,12.11
2019-05-22T19:05:56.490Z,12.09
2019-05-22T19:10:59.273Z,11.92
2019-05-22T19:13:28.304Z,11.87
2019-05-22T19:15:55.787Z,11.77
2019-05-22T19:18:30.178Z,11.69
2019-05-22T19:21:05.796Z,11.60
2019-05-22T19:23:35.853Z,11.47
2019-05-22T19:26:05.722Z,11.36
2019-05-22T19:28:43.679Z,11.17
2019-05-22T19:31:43.868Z,11.05
2019-05-22T19:34:11.537Z,10.98
2019-05-22T19:36:39.051Z,10.82
2019-05-22T19:39:06.891Z,10.67
2019-05-22T19:41:40.471Z,10.53
2019-05-22T19:44:08.602Z,10.38
2019-05-22T19:46:36.708Z,10.29
2019-05-22T19:49:03.705Z,10.26
2019-05-22T19:51:30.649Z,10.18
2019-05-22T19:53:57.260Z,10.12
2019-05-22T19:56:24.171Z,10.05
2019-05-22T19:58:55.622Z,9.96
2019-05-22T20:01:22.202Z,9.90
2019-05-22T20:03:52.584Z,9.83
2019-05-22T20:06:20.266Z,9.76
2019-05-22T20:08:47.140Z,9.69
2019-05-22T20:11:14.775Z,9.62
2019-05-22T20:13:42.438Z,9.56
2019-05-22T20:16:09.375Z,9.51
2019-05-22T20:18:36.119Z,9.45
2019-05-22T20:21:03.824Z,9.41
2019-05-22T20:23:36.304Z,9.34
2019-05-22T20:26:00.885Z,9.27
2019-05-22T20:28:27.483Z,9.23
2019-05-22T20:30:54.261Z,9.22
2019-05-22T20:33:26.468Z,9.20
2019-05-22T20:35:51.711Z,9.21
2019-05-22T20:38:18.435Z,9.22
2019-05-22T20:40:45.426Z,9.21
2019-05-22T20:43:18.878Z,9.19
2019-05-22T20:45:47.163Z,9.16
2019-05-22T20:48:29.784Z,9.11
2019-05-22T20:50:59.040Z,9.06
2019-05-22T20:53:26.630Z,8.95
2019-05-22T20:55:53.791Z,8.86
2019-05-22T20:59:15.678Z,8.84
2019-05-22T21:01:45.384Z,8.75
2019-05-22T21:04:13.190Z,8.56
2019-05-22T21:06:45.731Z,8.49
2019-05-22T21:09:13.833Z,8.45
2019-05-22T21:11:42.163Z,8.47
2019-05-22T21:14:08.952Z,8.47
2019-05-22T21:16:35.733Z,8.42
2019-05-22T21:19:03.665Z,8.43
2019-05-22T21:21:31.782Z,8.37
2019-05-22T21:24:09.839Z,8.35
2019-05-22T21:26:28.131Z,8.32
2019-05-22T21:28:56.418Z,8.26
2019-05-22T21:31:24.022Z,8.28
2019-05-22T21:33:51.084Z,8.26
2019-05-22T21:36:19.385Z,8.21
2019-05-22T21:38:46.305Z,8.15
2019-05-22T21:41:13.309Z,8.15
2019-05-22T21:43:40.202Z,8.18
2019-05-22T21:46:06.854Z,8.15
2019-05-22T21:48:47.974Z,8.19
2019-05-22T21:51:17.650Z,8.21
2019-05-22T21:53:44.133Z,8.23
2019-05-22T21:56:10.639Z,8.22
2019-05-22T21:58:37.775Z,8.24
2019-05-22T22:01:22.434Z,8.20
2019-05-22T22:03:54.895Z,8.18
2019-05-22T22:06:22.559Z,8.19
2019-05-22T22:08:49.492Z,8.20
2019-05-22T22:11:17.699Z,8.17
2019-05-22T22:13:44.597Z,8.17
2019-05-22T22:16:12.049Z,8.14
2019-05-22T22:18:39.281Z,8.08
2019-05-22T22:21:05.872Z,8.06
2019-05-22T22:23:35.723Z,8.06
2019-05-22T22:26:03.153Z,7.99
2019-05-22T22:28:30.628Z,7.95
2019-05-22T22:30:59.736Z,7.87
2019-05-22T22:33:28.013Z,7.88
2019-05-22T22:35:54.697Z,7.90
2019-05-22T22:38:24.115Z,7.86
2019-05-22T22:40:51.194Z,7.85
2019-05-22T22:43:17.870Z,7.81
2019-05-22T22:45:53.710Z,7.83
2019-05-22T22:48:22.931Z,7.80
2019-05-22T22:50:49.528Z,7.84
2019-05-22T22:53:17.776Z,7.80
2019-05-22T22:55:44.457Z,7.83
2019-05-22T22:58:17.166Z,7.83
2019-05-22T23:00:42.763Z,7.85
2019-05-22T23:03:10.971Z,7.86
2019-05-22T23:05:38.083Z,7.88
2019-05-22T23:08:07.242Z,7.86
2019-05-22T23:10:34.397Z,7.85
2019-05-22T23:13:00.995Z,7.83
2019-05-22T23:15:29.105Z,7.81
2019-05-22T23:17:55.749Z,7.78
2019-05-22T23:20:21.937Z,7.70
2019-05-22T23:22:48.710Z,7.62
2019-05-22T23:25:16.448Z,7.53
2019-05-22T23:27:44.538Z,7.50
2019-05-22T23:30:11.180Z,7.53
2019-05-22T23:32:38.397Z,7.53
2019-05-22T23:35:06.949Z,7.53
2019-05-22T23:37:34.987Z,7.53
2019-05-22T23:40:02.187Z,7.57
2019-05-22T23:42:34.382Z,7.63
2019-05-22T23:45:02.953Z,7.68
2019-05-22T23:47:31.358Z,7.69
2019-05-22T23:49:58.004Z,7.74
2019-05-22T23:52:25.179Z,7.77
2019-05-22T23:54:53.178Z,7.77
2019-05-22T23:57:19.955Z,7.76
2019-05-22T23:59:50.170Z,7.77
